Terminal Aerodrome Forecast
Issued by NWS Duluth, MN

Home | Current Version | Previous Version | Text Only | Print | Product List | Glossary On
Versions: 1 2 3 4 5 6 7 8 9 10 11 12 13 14 15 16 17 18 19 20 21 22 23 24 25 26 27 28 29 30 31 32 33 34
000
FTUS43 KDLH 241738
TAFDLH
TAF
KDLH 241738Z 2418/2518 15010KT P6SM SKC
     FM250100 13006KT P6SM SCT250
     FM250800 13004KT 4SM -DZ BR SCT020
     FM251100 15005KT 3SM -DZ BR BKN012 OVC120
     FM251400 16008KT 5SM BR SCT010 BKN025 OVC050=

USA.gov is the U.S. government's official web portal to all federal, state and local government web resources and services.